createdAt,value
2017-12-02T00:00:07.581Z,100176.36
2017-12-02T00:02:38.578Z,100182.33
2017-12-02T00:05:07.728Z,100183.66
2017-12-02T00:07:37.686Z,100178.16
2017-12-02T00:10:07.558Z,100178.02
2017-12-02T00:12:37.513Z,100182.95
2017-12-02T00:15:06.819Z,100181.29
2017-12-02T00:17:35.955Z,100185.87
2017-12-02T00:20:05.153Z,100182.91
2017-12-02T00:22:35.475Z,100196.59
2017-12-02T00:25:05.593Z,100193.20
2017-12-02T00:27:37.626Z,100187.64
2017-12-02T00:30:06.614Z,100198.37
2017-12-02T00:32:35.751Z,100184.77
2017-12-02T00:35:05.807Z,100190.42
2017-12-02T00:37:34.720Z,100184.95
2017-12-02T00:40:03.672Z,100188.94
2017-12-02T00:42:34.616Z,100183.78
2017-12-02T00:45:03.652Z,100175.16
2017-12-02T00:47:32.555Z,100179.44
2017-12-02T00:50:01.588Z,100180.66
2017-12-02T00:52:30.510Z,100178.86
2017-12-02T00:54:59.370Z,100179.80
2017-12-02T00:57:28.359Z,100172.89
2017-12-02T00:59:57.330Z,100161.84
2017-12-02T01:02:26.281Z,100152.00
2017-12-02T01:04:56.300Z,100152.52
2017-12-02T01:07:25.115Z,100138.24
2017-12-02T01:09:54.054Z,100131.97
2017-12-02T01:12:24.051Z,100132.67
2017-12-02T01:14:52.882Z,100137.19
2017-12-02T01:17:21.777Z,100143.47
2017-12-02T01:19:55.996Z,100151.33
2017-12-02T01:22:24.854Z,100152.28
2017-12-02T01:24:53.737Z,100149.30
2017-12-02T01:27:22.650Z,100158.09
2017-12-02T01:29:51.474Z,100149.95
2017-12-02T01:32:20.602Z,100163.50
2017-12-02T01:34:51.730Z,100160.97
2017-12-02T01:37:20.802Z,100155.47
2017-12-02T01:39:50.736Z,100161.36
2017-12-02T01:42:20.675Z,100158.41
2017-12-02T01:44:49.617Z,100166.61
2017-12-02T01:47:18.660Z,100167.68
2017-12-02T01:49:47.856Z,100166.31
2017-12-02T01:52:22.756Z,100155.28
2017-12-02T01:54:51.847Z,100138.17
2017-12-02T01:57:20.842Z,100136.02
2017-12-02T01:59:49.857Z,100141.48
2017-12-02T02:02:18.879Z,100149.52
2017-12-02T02:04:47.865Z,100150.34
2017-12-02T02:07:16.955Z,100151.48
2017-12-02T02:09:47.160Z,100148.47
2017-12-02T02:12:19.968Z,100155.05
2017-12-02T02:14:54.959Z,100152.00
2017-12-02T02:17:24.975Z,100147.24
2017-12-02T02:19:55.638Z,100148.72
2017-12-02T02:22:24.544Z,100145.00
2017-12-02T02:24:53.786Z,100160.34
2017-12-02T02:27:23.084Z,100157.77
2017-12-02T02:29:52.099Z,100150.61
2017-12-02T02:32:22.011Z,100154.84
2017-12-02T02:34:53.092Z,100158.20
2017-12-02T02:37:22.152Z,100159.95
2017-12-02T02:39:52.118Z,100161.09
2017-12-02T02:42:21.203Z,100165.44
2017-12-02T02:44:50.202Z,100166.20
2017-12-02T02:47:19.740Z,100163.22
2017-12-02T02:49:50.605Z,100163.58
2017-12-02T02:52:19.690Z,100158.84
2017-12-02T02:54:49.507Z,100164.88
2017-12-02T02:57:21.239Z,100172.86
2017-12-02T02:59:50.404Z,100166.58
2017-12-02T03:02:19.462Z,100179.84
2017-12-02T03:04:50.190Z,100180.30
2017-12-02T03:07:19.218Z,100180.70
2017-12-02T03:09:48.417Z,100186.65
2017-12-02T03:12:20.865Z,100192.07
2017-12-02T03:14:51.848Z,100190.75
2017-12-02T03:17:21.196Z,100192.07
2017-12-02T03:19:51.189Z,100189.08
2017-12-02T03:22:20.313Z,100191.98
2017-12-02T03:24:50.452Z,100200.05
2017-12-02T03:27:21.623Z,100195.92
2017-12-02T03:29:50.772Z,100183.55
2017-12-02T03:32:19.887Z,100201.58
2017-12-02T03:34:51.937Z,100198.58
2017-12-02T03:37:21.222Z,100185.31
2017-12-02T03:39:51.026Z,100199.53
2017-12-02T03:42:20.350Z,100205.45
2017-12-02T03:44:49.484Z,100200.81
2017-12-02T03:47:19.520Z,100194.51
2017-12-02T03:52:24.026Z,100194.00
2017-12-02T03:54:54.150Z,100196.19
2017-12-02T03:57:24.209Z,100193.21
2017-12-02T03:59:53.608Z,100192.75
2017-12-02T04:02:22.639Z,100193.63
2017-12-02T04:04:53.397Z,100199.70
2017-12-02T04:07:23.437Z,100195.19
2017-12-02T04:09:52.630Z,100185.86
2017-12-02T04:12:21.953Z,100195.71
2017-12-02T04:14:51.023Z,100197.57
2017-12-02T04:17:21.011Z,100198.30
2017-12-02T04:19:51.948Z,100202.70
2017-12-02T04:22:21.228Z,100201.03
2017-12-02T04:24:51.171Z,100199.81
2017-12-02T04:27:20.513Z,100202.31
2017-12-02T04:29:49.819Z,100196.31
2017-12-02T04:32:19.080Z,100203.56
2017-12-02T04:34:48.394Z,100198.59
2017-12-02T04:37:18.435Z,100194.41
2017-12-02T04:39:47.625Z,100197.75
2017-12-02T04:42:16.777Z,100215.70
2017-12-02T04:44:45.977Z,100221.42
2017-12-02T04:47:15.159Z,100217.09
2017-12-02T04:49:44.475Z,100206.89
2017-12-02T04:52:14.594Z,100201.77
2017-12-02T04:54:46.197Z,100209.05
2017-12-02T04:57:15.286Z,100212.92
2017-12-02T04:59:44.281Z,100212.05
2017-12-02T05:02:16.884Z,100211.22
2017-12-02T05:04:46.837Z,100213.73
2017-12-02T05:07:16.142Z,100207.68
2017-12-02T05:09:45.182Z,100213.41
2017-12-02T05:12:14.175Z,100209.43
2017-12-02T05:14:43.213Z,100210.63
2017-12-02T05:17:13.947Z,100211.91
2017-12-02T05:19:42.852Z,100218.61
2017-12-02T05:22:11.819Z,100228.88
2017-12-02T05:24:43.581Z,100235.48
2017-12-02T05:27:12.558Z,100237.13
2017-12-02T05:29:41.665Z,100241.37
2017-12-02T05:32:10.700Z,100239.22
2017-12-02T05:34:39.627Z,100242.37
2017-12-02T05:37:08.694Z,100236.70
2017-12-02T05:39:37.929Z,100234.84
2017-12-02T05:42:06.866Z,100242.61
2017-12-02T05:44:35.837Z,100248.97
2017-12-02T05:47:04.823Z,100248.42
2017-12-02T05:49:33.840Z,100250.08
2017-12-02T05:52:02.792Z,100243.18
2017-12-02T05:54:33.922Z,100243.44
2017-12-02T05:57:02.938Z,100253.15
2017-12-02T05:59:31.990Z,100242.16
2017-12-02T06:02:01.875Z,100233.63
2017-12-02T06:04:30.932Z,100240.51
2017-12-02T06:06:59.880Z,100243.09
2017-12-02T06:09:29.134Z,100239.69
2017-12-02T06:11:58.143Z,100231.05
2017-12-02T06:14:28.673Z,100243.30
2017-12-02T06:16:57.728Z,100252.45
2017-12-02T06:19:26.712Z,100251.97
2017-12-02T06:21:55.732Z,100253.05
2017-12-02T06:24:24.862Z,100261.02
2017-12-02T06:26:53.945Z,100264.39
2017-12-02T06:29:22.898Z,100263.08
2017-12-02T06:31:52.061Z,100261.57
2017-12-02T06:34:21.105Z,100258.83
2017-12-02T06:36:50.095Z,100257.05
2017-12-02T06:39:19.071Z,100265.69
2017-12-02T06:41:48.105Z,100259.69
2017-12-02T06:44:17.194Z,100263.65
2017-12-02T06:46:47.035Z,100259.59
2017-12-02T06:49:16.009Z,100264.36
2017-12-02T06:51:45.044Z,100268.39
2017-12-02T06:56:48.588Z,100276.73
2017-12-02T06:59:17.576Z,100294.23
2017-12-02T07:01:46.613Z,100291.38
2017-12-02T07:04:15.767Z,100293.77
2017-12-02T07:06:44.804Z,100296.09
2017-12-02T07:09:13.913Z,100301.03
2017-12-02T07:11:43.006Z,100291.44
2017-12-02T07:14:12.088Z,100294.22
2017-12-02T07:16:43.033Z,100301.14
2017-12-02T07:19:12.042Z,100297.59
2017-12-02T07:21:41.039Z,100303.78
2017-12-02T07:24:10.074Z,100310.70
2017-12-02T07:26:39.226Z,100310.03
2017-12-02T07:29:10.267Z,100310.63
2017-12-02T07:31:39.426Z,100313.59
2017-12-02T07:34:09.490Z,100318.55
2017-12-02T07:36:38.515Z,100329.98
2017-12-02T07:39:07.815Z,100343.02
2017-12-02T07:41:36.920Z,100341.27
2017-12-02T07:44:06.997Z,100342.48
2017-12-02T07:46:36.091Z,100348.55
2017-12-02T07:49:11.949Z,100345.63
2017-12-02T07:51:41.148Z,100352.42
2017-12-02T07:54:11.876Z,100357.44
2017-12-02T07:56:42.002Z,100351.23
2017-12-02T07:59:12.105Z,100347.12
2017-12-02T08:01:41.261Z,100344.52
2017-12-02T08:04:12.316Z,100346.81
2017-12-02T08:06:41.497Z,100344.02
2017-12-02T08:09:11.593Z,100343.17
2017-12-02T08:11:41.799Z,100339.12
2017-12-02T08:14:10.882Z,100336.47
2017-12-02T08:16:39.934Z,100339.72
2017-12-02T08:19:09.950Z,100345.00
2017-12-02T08:21:38.919Z,100344.31
2017-12-02T08:24:07.876Z,100341.36
2017-12-02T08:26:37.661Z,100348.70
2017-12-02T08:29:06.655Z,100346.83
2017-12-02T08:31:35.617Z,100336.97
2017-12-02T08:34:04.711Z,100343.41
2017-12-02T08:36:33.734Z,100341.11
2017-12-02T08:39:02.732Z,100348.06
2017-12-02T08:41:32.753Z,100347.59
2017-12-02T08:44:01.793Z,100337.21
2017-12-02T08:46:30.805Z,100325.69
2017-12-02T08:49:00.950Z,100325.41
2017-12-02T08:51:29.920Z,100322.63
2017-12-02T08:53:58.814Z,100330.70
2017-12-02T08:56:27.792Z,100333.63
2017-12-02T08:58:56.802Z,100341.48
2017-12-02T09:01:25.772Z,100330.94
2017-12-02T09:03:54.853Z,100325.59
2017-12-02T09:06:23.849Z,100322.27
2017-12-02T09:08:52.755Z,100327.70
2017-12-02T09:13:56.574Z,100330.83
2017-12-02T09:16:25.602Z,100323.25
2017-12-02T09:18:57.084Z,100325.51
2017-12-02T09:21:26.087Z,100309.84
2017-12-02T09:23:55.042Z,100321.55
2017-12-02T09:26:25.192Z,100322.84
2017-12-02T09:28:54.155Z,100319.88
2017-12-02T09:31:23.068Z,100313.84
2017-12-02T09:33:52.070Z,100304.21
2017-12-02T09:36:21.054Z,100300.27
2017-12-02T09:38:50.029Z,100311.05
2017-12-02T09:41:20.908Z,100305.84
2017-12-02T09:43:50.059Z,100302.88
2017-12-02T09:46:21.398Z,100305.42
2017-12-02T09:54:03.415Z,100301.42
2017-12-02T09:56:40.285Z,100293.08
2017-12-02T09:59:09.489Z,100296.80
2017-12-02T10:01:38.730Z,100296.67
2017-12-02T10:04:08.287Z,100303.64
2017-12-02T10:06:38.307Z,100302.74
2017-12-02T10:09:07.775Z,100298.30
2017-12-02T10:11:37.182Z,100310.38
2017-12-02T10:16:41.287Z,100307.78
2017-12-02T10:19:10.733Z,100309.59
2017-12-02T10:21:41.144Z,100323.19
2017-12-02T10:24:10.456Z,100319.95
2017-12-02T10:26:40.844Z,100324.87
2017-12-02T10:29:10.332Z,100316.74
2017-12-02T10:31:41.011Z,100304.94
2017-12-02T10:34:10.424Z,100319.56
2017-12-02T10:36:41.323Z,100310.38
2017-12-02T10:39:10.815Z,100316.98
2017-12-02T10:41:40.116Z,100316.67
2017-12-02T10:46:44.021Z,100288.27
2017-12-02T10:49:13.270Z,100276.03
2017-12-02T10:51:43.824Z,100273.25
2017-12-02T10:54:12.919Z,100281.69
2017-12-02T10:56:43.658Z,100283.23
2017-12-02T10:59:12.979Z,100285.48
2017-12-02T11:01:43.083Z,100279.15
2017-12-02T11:04:12.122Z,100279.68
2017-12-02T11:06:41.108Z,100279.13
2017-12-02T11:09:10.157Z,100284.16
2017-12-02T11:11:39.154Z,100279.94
2017-12-02T11:14:09.007Z,100276.29
2017-12-02T11:16:38.306Z,100278.44
2017-12-02T11:19:07.402Z,100272.98
2017-12-02T11:21:39.019Z,100276.12
2017-12-02T11:24:09.244Z,100280.84
2017-12-02T11:26:38.520Z,100281.62
2017-12-02T11:29:07.711Z,100280.16
2017-12-02T11:31:38.038Z,100272.52
2017-12-02T11:34:10.908Z,100268.77
2017-12-02T11:36:40.434Z,100274.44
2017-12-02T11:39:10.165Z,100273.40
2017-12-02T11:41:39.695Z,100280.25
2017-12-02T11:44:09.344Z,100279.09
2017-12-02T11:46:38.861Z,100279.47
2017-12-02T11:51:44.700Z,100291.88
2017-12-02T11:54:13.876Z,100304.08
2017-12-02T11:56:43.437Z,100299.45
2017-12-02T11:59:15.166Z,100299.48
2017-12-02T12:01:46.020Z,100310.06
2017-12-02T12:04:15.601Z,100309.47
2017-12-02T12:06:45.257Z,100311.46
2017-12-02T12:09:14.717Z,100318.45
2017-12-02T12:11:43.781Z,100320.45
2017-12-02T12:14:13.300Z,100329.91
2017-12-02T12:16:44.587Z,100327.07
2017-12-02T12:19:15.505Z,100328.34
2017-12-02T12:21:44.727Z,100323.45
2017-12-02T12:24:14.128Z,100324.95
2017-12-02T12:26:43.368Z,100319.73
2017-12-02T12:29:12.667Z,100310.53
2017-12-02T12:31:42.646Z,100320.33
2017-12-02T12:34:12.107Z,100319.55
2017-12-02T12:36:41.239Z,100324.22
2017-12-02T12:39:12.227Z,100324.87
2017-12-02T12:41:41.365Z,100320.56
2017-12-02T12:44:12.470Z,100324.69
2017-12-02T12:46:42.738Z,100339.45
2017-12-02T12:49:11.988Z,100350.17
2017-12-02T12:51:43.208Z,100343.92
2017-12-02T12:54:12.539Z,100344.11
2017-12-02T12:56:41.884Z,100346.56
2017-12-02T12:59:12.732Z,100355.77
2017-12-02T13:01:42.269Z,100354.14
2017-12-02T13:04:11.535Z,100357.59
2017-12-02T13:06:41.798Z,100358.77
2017-12-02T13:09:12.294Z,100359.47
2017-12-02T13:11:41.453Z,100357.18
2017-12-02T13:14:10.555Z,100363.81
2017-12-02T13:16:40.329Z,100363.00
2017-12-02T13:19:09.422Z,100378.53
2017-12-02T13:21:38.472Z,100384.98
2017-12-02T13:24:07.461Z,100384.89
2017-12-02T13:26:36.717Z,100393.67
2017-12-02T13:29:06.892Z,100391.77
2017-12-02T13:31:35.796Z,100383.96
2017-12-02T13:34:04.741Z,100386.53
2017-12-02T13:36:33.887Z,100399.71
2017-12-02T13:39:04.477Z,100408.27
2017-12-02T13:41:36.712Z,100409.60
2017-12-02T13:44:06.146Z,100402.86
2017-12-02T13:46:36.231Z,100401.62
2017-12-02T13:49:07.547Z,100401.12
2017-12-02T13:51:38.065Z,100407.13
2017-12-02T13:54:07.525Z,100409.35
2017-12-02T13:56:38.398Z,100420.44
2017-12-02T13:59:09.125Z,100423.36
2017-12-02T14:01:38.368Z,100419.93
2017-12-02T14:04:07.943Z,100417.60
2017-12-02T14:06:37.268Z,100416.73
2017-12-02T14:09:06.955Z,100417.38
2017-12-02T14:11:38.663Z,100426.66
2017-12-02T14:14:09.548Z,100424.83
2017-12-02T14:16:38.635Z,100434.95
2017-12-02T14:19:08.216Z,100436.42
2017-12-02T14:21:38.333Z,100437.58
2017-12-02T14:24:07.874Z,100443.03
2017-12-02T14:26:38.497Z,100436.05
2017-12-02T14:29:08.635Z,100439.92
2017-12-02T14:31:38.150Z,100441.45
2017-12-02T14:34:09.384Z,100446.13
2017-12-02T14:36:38.746Z,100444.69
2017-12-02T14:39:07.783Z,100450.06
2017-12-02T14:41:37.399Z,100463.30
2017-12-02T14:44:17.981Z,100465.33
2017-12-02T14:46:50.394Z,100447.22
2017-12-02T14:49:19.834Z,100461.59
2017-12-02T14:51:48.991Z,100451.67
2017-12-02T14:54:20.804Z,100467.46
2017-12-02T14:56:50.083Z,100467.59
2017-12-02T14:59:19.291Z,100463.39
2017-12-02T15:01:50.639Z,100481.25
2017-12-02T15:04:19.609Z,100466.22
2017-12-02T15:06:48.727Z,100488.72
2017-12-02T15:09:18.341Z,100495.48
2017-12-02T15:11:48.367Z,100497.25
2017-12-02T15:14:17.271Z,100497.61
2017-12-02T15:16:46.720Z,100491.75
2017-12-02T15:19:15.653Z,100492.59
2017-12-02T15:21:46.132Z,100479.73
2017-12-02T15:26:50.003Z,100477.94
2017-12-02T15:29:19.679Z,100482.38
2017-12-02T15:31:50.118Z,100479.34
2017-12-02T15:34:19.590Z,100487.42
2017-12-02T15:36:49.130Z,100482.39
2017-12-02T15:39:19.320Z,100496.41
2017-12-02T15:41:48.520Z,100516.60
2017-12-02T15:44:18.044Z,100506.61
2017-12-02T15:46:47.629Z,100508.95
2017-12-02T15:49:16.876Z,100520.67
2017-12-02T15:51:46.090Z,100527.90
2017-12-02T15:54:15.336Z,100518.26
2017-12-02T15:56:44.558Z,100515.09
2017-12-02T15:59:14.956Z,100519.45
2017-12-02T16:01:44.785Z,100516.76
2017-12-02T16:04:14.350Z,100520.94
2017-12-02T16:09:19.789Z,100540.25
2017-12-02T16:11:49.525Z,100568.88
2017-12-02T16:14:19.660Z,100596.63
2017-12-02T16:16:49.125Z,100591.30
2017-12-02T16:19:18.489Z,100584.95
2017-12-02T16:21:49.795Z,100586.67
2017-12-02T16:24:19.821Z,100584.62
2017-12-02T16:26:49.359Z,100577.84
2017-12-02T16:29:18.924Z,100569.87
2017-12-02T16:31:48.462Z,100558.11
2017-12-02T16:34:17.663Z,100556.53
2017-12-02T16:36:47.828Z,100550.72
2017-12-02T16:39:17.798Z,100552.64
2017-12-02T16:41:47.565Z,100566.96
2017-12-02T16:44:16.908Z,100569.20
2017-12-02T16:46:46.298Z,100577.88
2017-12-02T16:49:16.493Z,100576.35
2017-12-02T16:51:47.694Z,100583.88
2017-12-02T16:54:17.981Z,100574.39
2017-12-02T16:56:47.610Z,100573.45
2017-12-02T16:59:19.508Z,100569.13
2017-12-02T17:01:48.721Z,100572.86
2017-12-02T17:04:18.293Z,100582.11
2017-12-02T17:06:49.695Z,100576.59
2017-12-02T17:09:19.589Z,100572.60
2017-12-02T17:11:48.765Z,100575.25
2017-12-02T17:14:18.157Z,100585.86
2017-12-02T17:16:47.500Z,100589.61
2017-12-02T17:19:17.106Z,100587.95
2017-12-02T17:21:46.292Z,100589.70
2017-12-02T17:24:15.531Z,100601.77
2017-12-02T17:26:45.266Z,100603.51
2017-12-02T17:29:16.368Z,100595.89
2017-12-02T17:31:46.864Z,100587.28
2017-12-02T17:36:54.924Z,100606.53
2017-12-02T17:39:24.365Z,100604.33
2017-12-02T17:44:30.240Z,100618.48
2017-12-02T17:46:59.867Z,100625.78
2017-12-02T17:49:30.209Z,100619.87
2017-12-02T17:51:59.359Z,100627.05
2017-12-02T17:54:29.892Z,100624.13
2017-12-02T17:57:00.898Z,100623.29
2017-12-02T17:59:29.885Z,100636.03
2017-12-02T18:01:58.926Z,100646.66
2017-12-02T18:04:28.777Z,100634.28
2017-12-02T18:06:57.791Z,100637.27
2017-12-02T18:09:27.560Z,100627.52
2017-12-02T18:11:57.185Z,100636.84
2017-12-02T18:14:27.022Z,100633.37
2017-12-02T18:16:57.138Z,100644.64
2017-12-02T18:22:01.059Z,100651.01
2017-12-02T18:24:30.926Z,100654.55
2017-12-02T18:27:00.284Z,100647.52
2017-12-02T18:29:29.268Z,100644.69
2017-12-02T18:31:58.382Z,100642.27
2017-12-02T18:34:27.764Z,100646.22
2017-12-02T18:36:57.283Z,100644.09
2017-12-02T18:39:26.653Z,100638.17
2017-12-02T18:42:00.294Z,100636.58
2017-12-02T18:44:31.597Z,100642.07
2017-12-02T18:47:02.716Z,100638.25
2017-12-02T18:49:31.617Z,100644.69
2017-12-02T18:52:02.603Z,100657.81
2017-12-02T18:54:32.611Z,100653.58
2017-12-02T18:57:02.338Z,100656.94
2017-12-02T18:59:37.158Z,100662.45
2017-12-02T19:02:06.265Z,100666.70
2017-12-02T19:04:36.168Z,100667.61
2017-12-02T19:07:06.145Z,100673.08
2017-12-02T19:09:35.349Z,100674.33
2017-12-02T19:12:04.414Z,100681.46
2017-12-02T19:14:35.892Z,100682.33
2017-12-02T19:17:05.093Z,100681.00
2017-12-02T19:19:34.187Z,100687.33
2017-12-02T19:22:05.021Z,100699.24
2017-12-02T19:24:34.314Z,100695.75
2017-12-02T19:27:04.441Z,100697.05
2017-12-02T19:29:33.474Z,100705.98
2017-12-02T19:32:02.564Z,100702.98
2017-12-02T19:34:31.613Z,100708.56
2017-12-02T19:37:02.702Z,100703.47
2017-12-02T19:39:31.864Z,100702.15
2017-12-02T19:42:01.108Z,100697.48
2017-12-02T19:47:04.122Z,100703.96
2017-12-02T19:49:33.129Z,100697.62
2017-12-02T19:52:02.299Z,100709.52
2017-12-02T19:54:32.380Z,100717.19
2017-12-02T19:57:01.720Z,100719.71
2017-12-02T19:59:30.877Z,100713.41
2017-12-02T20:02:00.940Z,100717.15
2017-12-02T20:04:30.118Z,100706.11
2017-12-02T20:06:59.258Z,100696.45
2017-12-02T20:09:29.411Z,100703.67
2017-12-02T20:11:58.780Z,100702.00
2017-12-02T20:14:28.680Z,100692.99
2017-12-02T20:17:00.387Z,100688.28
2017-12-02T20:19:29.626Z,100693.02
2017-12-02T20:21:59.655Z,100705.80
2017-12-02T20:24:29.667Z,100704.53
2017-12-02T20:26:58.862Z,100706.66
2017-12-02T20:29:28.375Z,100704.11
2017-12-02T20:31:59.981Z,100713.03
2017-12-02T20:34:28.982Z,100718.09
2017-12-02T20:36:58.380Z,100720.14
2017-12-02T20:39:27.579Z,100714.17
2017-12-02T20:41:56.544Z,100720.14
2017-12-02T20:44:25.463Z,100735.88
2017-12-02T20:46:54.557Z,100747.83
2017-12-02T20:49:23.553Z,100751.14
2017-12-02T20:51:53.367Z,100748.17
2017-12-02T20:56:59.435Z,100731.52
2017-12-02T20:59:28.558Z,100746.89
2017-12-02T21:01:58.761Z,100726.08
2017-12-02T21:04:27.751Z,100717.95
2017-12-02T21:06:57.603Z,100728.64
2017-12-02T21:09:27.991Z,100734.13
2017-12-02T21:12:00.063Z,100729.05
2017-12-02T21:14:29.985Z,100754.97
2017-12-02T21:16:58.963Z,100745.70
2017-12-02T21:22:02.875Z,100769.01
2017-12-02T21:24:32.869Z,100771.09
2017-12-02T21:27:03.788Z,100787.25
2017-12-02T21:29:33.009Z,100769.83
2017-12-02T21:32:02.748Z,100778.77
2017-12-02T21:34:33.157Z,100796.16
2017-12-02T21:37:02.381Z,100789.34
2017-12-02T21:39:32.175Z,100762.25
2017-12-02T21:42:01.292Z,100765.34
2017-12-02T21:44:30.392Z,100774.62
2017-12-02T21:47:01.541Z,100762.38
2017-12-02T21:49:34.625Z,100763.25
2017-12-02T21:52:03.822Z,100764.12
2017-12-02T21:54:33.125Z,100775.98
2017-12-02T21:57:03.194Z,100784.50
2017-12-02T21:59:32.271Z,100774.32
2017-12-02T22:02:07.101Z,100783.66
2017-12-02T22:04:37.189Z,100784.48
2017-12-02T22:07:06.406Z,100789.56
2017-12-02T22:09:35.864Z,100788.73
2017-12-02T22:12:04.782Z,100781.50
2017-12-02T22:14:34.798Z,100789.52
2017-12-02T22:17:04.048Z,100791.59
2017-12-02T22:19:33.254Z,100787.78
2017-12-02T22:22:02.395Z,100786.93
2017-12-02T22:24:32.469Z,100779.27
2017-12-02T22:27:02.126Z,100772.44
2017-12-02T22:29:31.049Z,100781.75
2017-12-02T22:32:06.766Z,100780.53
2017-12-02T22:34:36.819Z,100774.61
2017-12-02T22:37:06.697Z,100766.97
2017-12-02T22:39:35.732Z,100767.34
2017-12-02T22:42:05.597Z,100770.30
2017-12-02T22:44:37.557Z,100771.09
2017-12-02T22:47:07.521Z,100771.94
2017-12-02T22:56:25.481Z,100767.69
2017-12-02T22:58:54.487Z,100771.51
2017-12-02T23:01:23.912Z,100767.75
2017-12-02T23:03:52.964Z,100759.72
2017-12-02T23:06:23.232Z,100761.41
2017-12-02T23:08:52.234Z,100752.16
2017-12-02T23:11:21.418Z,100749.61
2017-12-02T23:13:50.453Z,100753.84
2017-12-02T23:16:19.665Z,100738.56
2017-12-02T23:18:49.004Z,100729.23
2017-12-02T23:21:18.065Z,100736.84
2017-12-02T23:23:47.179Z,100734.23
2017-12-02T23:26:16.504Z,100737.53
2017-12-02T23:28:46.296Z,100732.53
2017-12-02T23:31:15.328Z,100730.44
2017-12-02T23:33:46.364Z,100719.49
2017-12-02T23:36:15.564Z,100714.80
2017-12-02T23:38:44.555Z,100721.63
2017-12-02T23:41:13.639Z,100722.09
2017-12-02T23:43:42.723Z,100728.05
2017-12-02T23:46:11.692Z,100729.33
2017-12-02T23:48:43.973Z,100732.34
2017-12-02T23:51:13.301Z,100730.22
2017-12-02T23:53:43.279Z,100731.09
2017-12-02T23:56:13.296Z,100728.12
2017-12-02T23:58:42.385Z,100728.11
